createdAt,value
2019-04-06T00:01:40.712Z,13.53
2019-04-06T00:04:33.779Z,10.13
2019-04-06T00:07:20.981Z,18.82
2019-04-06T00:10:14.762Z,15.08
2019-04-06T00:13:08.106Z,20.57
2019-04-06T00:16:02.462Z,12.60
2019-04-06T00:18:55.465Z,18.40
2019-04-06T00:21:56.201Z,19.42
2019-04-06T00:24:49.256Z,19.60
2019-04-06T00:27:42.311Z,11.78
2019-04-06T00:30:43.304Z,8.13
2019-04-06T00:33:36.361Z,10.35
2019-04-06T00:36:25.831Z,6.30
2019-04-06T00:39:21.193Z,11.55
2019-04-06T00:42:14.253Z,11.38
2019-04-06T00:45:07.319Z,18.48
2019-04-06T00:48:00.398Z,5.83
2019-04-06T00:50:53.415Z,8.08
2019-04-06T00:53:46.475Z,4.95
2019-04-06T00:56:39.530Z,8.85
2019-04-06T00:59:33.608Z,11.15
2019-04-06T01:02:26.669Z,14.50
2019-04-06T01:05:27.659Z,23.32
2019-04-06T01:08:20.971Z,17.77
2019-04-06T01:11:14.288Z,18.92
2019-04-06T01:14:07.341Z,14.50
2019-04-06T01:17:00.649Z,17.52
2019-04-06T01:19:53.966Z,17.77
2019-04-06T01:22:47.018Z,19.30
2019-04-06T01:25:41.104Z,11.08
2019-04-06T01:28:35.180Z,16.73
2019-04-06T01:31:36.938Z,11.15
2019-04-06T01:34:30.250Z,16.95
2019-04-06T01:37:23.313Z,8.90
2019-04-06T01:40:16.363Z,11.75
2019-04-06T01:43:09.672Z,14.95
2019-04-06T01:46:02.984Z,12.40
2019-04-06T01:48:56.046Z,9.05
2019-04-06T01:51:49.099Z,11.73
2019-04-06T01:54:42.409Z,13.60
2019-04-06T01:57:35.722Z,12.98
2019-04-06T02:00:30.571Z,18.92
2019-04-06T02:03:23.631Z,14.80
2019-04-06T02:06:15.399Z,8.48
2019-04-06T02:09:08.715Z,18.05
2019-04-06T02:12:01.770Z,6.08
2019-04-06T02:14:54.567Z,8.08
2019-04-06T02:17:48.672Z,5.58
2019-04-06T02:20:41.961Z,9.20
2019-04-06T02:23:35.273Z,9.70
2019-04-06T02:26:36.518Z,6.00
2019-04-06T02:29:30.087Z,19.55
2019-04-06T02:32:49.523Z,18.52
2019-04-06T02:35:59.721Z,11.00
2019-04-06T02:39:09.958Z,7.10
2019-04-06T02:42:06.569Z,7.62
2019-04-06T02:45:00.654Z,16.07
2019-04-06T02:47:56.293Z,15.53
2019-04-06T02:50:49.337Z,17.17
2019-04-06T02:53:42.639Z,21.12
2019-04-06T02:56:46.130Z,13.88
2019-04-06T02:59:36.684Z,18.30
2019-04-06T03:02:30.010Z,15.85
2019-04-06T03:05:36.109Z,9.58
2019-04-06T03:08:29.185Z,8.05
2019-04-06T03:11:22.220Z,8.30
2019-04-06T03:14:15.017Z,7.42
2019-04-06T03:17:08.329Z,7.30
2019-04-06T03:20:03.558Z,10.20
2019-04-06T03:22:56.490Z,7.47
2019-04-06T03:25:45.708Z,6.40
2019-04-06T03:28:39.027Z,11.00
2019-04-06T03:31:28.697Z,7.85
2019-04-06T03:34:22.551Z,4.15
2019-04-06T03:37:14.345Z,5.47
2019-04-06T03:40:07.400Z,4.15
2019-04-06T03:43:01.481Z,5.10
2019-04-06T03:45:54.542Z,5.05
2019-04-06T03:48:47.595Z,16.05
2019-04-06T03:51:40.776Z,20.85
2019-04-06T03:54:27.982Z,6.42
2019-04-06T03:57:21.391Z,6.22
2019-04-06T04:00:10.857Z,17.30
2019-04-06T04:03:03.657Z,19.42
2019-04-06T04:05:57.158Z,15.10
2019-04-06T04:08:50.040Z,13.60
2019-04-06T04:11:43.083Z,5.60
2019-04-06T04:14:36.222Z,4.92
2019-04-06T04:17:29.365Z,8.83
2019-04-06T04:20:17.008Z,15.18
2019-04-06T04:23:13.053Z,7.75
2019-04-06T04:26:02.354Z,13.18
2019-04-06T04:28:51.594Z,12.10
2019-04-06T04:31:44.761Z,14.18
2019-04-06T04:34:38.598Z,6.47
2019-04-06T04:37:31.633Z,18.05
2019-04-06T04:40:24.683Z,27.13
2019-04-06T04:43:17.741Z,23.27
2019-04-06T04:46:10.850Z,22.70
2019-04-06T04:49:03.945Z,19.02
2019-04-06T04:51:56.906Z,23.38
2019-04-06T04:54:49.961Z,11.60
2019-04-06T04:57:45.369Z,16.05
2019-04-06T05:00:37.098Z,8.30
2019-04-06T05:03:32.714Z,7.87
2019-04-06T05:06:26.794Z,7.22
2019-04-06T05:09:19.857Z,7.95
2019-04-06T05:12:12.909Z,10.20
2019-04-06T05:15:29.256Z,8.65
2019-04-06T05:18:22.314Z,23.05
2019-04-06T05:21:15.371Z,9.20
2019-04-06T05:24:09.965Z,9.70
2019-04-06T05:27:04.301Z,8.70
2019-04-06T05:29:57.526Z,12.58
2019-04-06T05:32:50.413Z,16.67
2019-04-06T05:35:43.726Z,12.25
2019-04-06T05:38:38.650Z,11.65
2019-04-06T05:41:31.885Z,9.45
2019-04-06T05:44:25.193Z,15.68
2019-04-06T05:47:18.259Z,20.08
2019-04-06T05:50:14.217Z,13.25
2019-04-06T05:53:11.532Z,11.18
2019-04-06T05:56:05.357Z,20.20
2019-04-06T05:58:58.416Z,22.80
2019-04-06T06:01:51.722Z,11.45
2019-04-06T06:04:45.208Z,12.30
2019-04-06T06:07:38.099Z,10.20
2019-04-06T06:10:31.664Z,11.48
2019-04-06T06:13:24.726Z,26.55
2019-04-06T06:16:17.776Z,15.70
2019-04-06T06:19:14.044Z,17.10
2019-04-06T06:22:06.010Z,18.17
2019-04-06T06:24:59.388Z,11.70
2019-04-06T06:27:52.296Z,12.88
2019-04-06T06:30:45.354Z,18.37
2019-04-06T06:33:49.681Z,28.55
2019-04-06T06:36:42.985Z,15.90
2019-04-06T06:39:36.024Z,12.43
2019-04-06T06:42:28.588Z,14.10
2019-04-06T06:45:21.644Z,17.45
2019-04-06T06:48:14.701Z,23.98
2019-04-06T06:51:09.034Z,24.32
2019-04-06T06:54:02.281Z,14.83
2019-04-06T06:56:55.495Z,23.00
2019-04-06T06:59:49.224Z,25.05
2019-04-06T07:02:42.283Z,19.42
2019-04-06T07:05:35.998Z,20.97
2019-04-06T07:08:28.905Z,27.10
2019-04-06T07:11:21.960Z,19.20
2019-04-06T07:14:15.038Z,26.80
2019-04-06T07:17:04.232Z,19.80
2019-04-06T07:19:58.137Z,26.60
2019-04-06T07:22:51.115Z,28.17
2019-04-06T07:25:44.416Z,20.52
2019-04-06T07:28:39.516Z,16.05
2019-04-06T07:31:33.359Z,20.60
2019-04-06T07:34:26.408Z,18.85
2019-04-06T07:37:19.211Z,21.77
2019-04-06T07:40:08.394Z,13.38
2019-04-06T07:43:01.484Z,15.93
2019-04-06T07:45:59.913Z,17.70
2019-04-06T07:48:52.712Z,17.77
2019-04-06T07:51:46.538Z,20.15
2019-04-06T07:54:39.850Z,18.55
2019-04-06T07:57:33.254Z,14.28
2019-04-06T08:00:27.253Z,17.48
2019-04-06T08:03:16.203Z,29.50
2019-04-06T08:06:09.513Z,17.45
2019-04-06T08:09:02.827Z,17.80
2019-04-06T08:11:55.886Z,24.43
2019-04-06T08:14:49.029Z,17.77
2019-04-06T08:17:41.997Z,16.95
2019-04-06T08:20:35.307Z,13.53
2019-04-06T08:23:28.874Z,18.02
2019-04-06T08:26:21.928Z,23.00
2019-04-06T08:29:14.985Z,16.75
2019-04-06T08:32:08.044Z,16.62
2019-04-06T08:35:01.115Z,19.05
2019-04-06T08:37:48.601Z,16.10
2019-04-06T08:40:41.872Z,19.95
2019-04-06T08:43:35.475Z,15.95
2019-04-06T08:46:28.200Z,20.75
2019-04-06T08:49:26.891Z,17.67
2019-04-06T08:52:27.575Z,11.50
2019-04-06T08:55:27.934Z,16.17
2019-04-06T08:58:20.908Z,14.13
2019-04-06T09:01:14.230Z,12.82
2019-04-06T09:04:07.278Z,13.88
2019-04-06T09:07:00.387Z,14.98
2019-04-06T09:10:03.116Z,17.37
2019-04-06T09:12:56.172Z,24.92
2019-04-06T09:15:49.475Z,14.00
2019-04-06T09:18:42.681Z,12.60
2019-04-06T09:21:35.851Z,13.78
2019-04-06T09:24:29.180Z,11.30
2019-04-06T09:27:22.217Z,16.05
2019-04-06T09:30:11.464Z,13.55
2019-04-06T09:33:05.006Z,14.95
2019-04-06T09:35:58.313Z,15.95
2019-04-06T09:38:58.538Z,17.62
2019-04-06T09:41:51.597Z,19.37
2019-04-06T09:45:08.199Z,13.00
2019-04-06T09:48:03.195Z,17.73
2019-04-06T09:51:07.256Z,16.80
2019-04-06T09:54:17.590Z,13.25
2019-04-06T09:57:35.839Z,13.72
2019-04-06T10:00:33.901Z,16.40
2019-04-06T10:03:47.178Z,14.93
2019-04-06T10:06:49.966Z,16.73
2019-04-06T10:10:11.754Z,20.60
2019-04-06T10:13:20.112Z,16.42
2019-04-06T10:16:33.137Z,18.85
2019-04-06T10:19:54.559Z,14.03
2019-04-06T10:23:00.595Z,22.98
2019-04-06T10:26:13.738Z,13.38
2019-04-06T10:29:16.524Z,14.65
2019-04-06T10:32:20.330Z,14.23
2019-04-06T10:35:39.501Z,13.43
2019-04-06T10:38:49.203Z,17.07
2019-04-06T10:41:57.864Z,17.17
2019-04-06T10:45:08.074Z,14.25
2019-04-06T10:48:25.448Z,17.73
2019-04-06T10:54:36.146Z,10.45
2019-04-06T10:57:40.459Z,11.75
2019-04-06T11:00:47.848Z,9.88
2019-04-06T11:04:11.001Z,11.95
2019-04-06T11:07:14.469Z,9.28
2019-04-06T11:10:30.762Z,13.25
2019-04-06T11:13:41.993Z,11.55
2019-04-06T11:16:55.019Z,11.90
2019-04-06T11:19:55.018Z,9.90
2019-04-06T11:23:10.568Z,15.53
2019-04-06T11:26:21.290Z,13.13
2019-04-06T11:29:24.606Z,10.80
2019-04-06T11:32:23.784Z,12.58
2019-04-06T11:39:06.476Z,11.93
2019-04-06T11:42:19.495Z,10.55
2019-04-06T11:45:35.339Z,8.85
2019-04-06T11:48:39.938Z,18.40
2019-04-06T11:52:03.027Z,9.73
2019-04-06T11:55:10.083Z,13.03
2019-04-06T11:58:21.566Z,11.93
2019-04-06T12:01:36.924Z,9.85
2019-04-06T12:04:49.400Z,13.88
2019-04-06T12:07:52.953Z,11.38
2019-04-06T12:11:00.806Z,14.25
2019-04-06T12:14:05.436Z,14.18
2019-04-06T12:17:22.538Z,7.80
2019-04-06T12:20:26.351Z,10.45
2019-04-06T12:23:32.765Z,12.82
2019-04-06T12:26:33.749Z,14.75
2019-04-06T12:29:49.575Z,9.73
2019-04-06T12:36:13.908Z,12.35
2019-04-06T12:39:34.044Z,13.00
2019-04-06T12:42:39.378Z,10.48
2019-04-06T12:45:46.490Z,11.63
2019-04-06T12:48:46.196Z,11.93
2019-04-06T12:51:57.223Z,15.18
2019-04-06T12:55:10.974Z,13.55
2019-04-06T12:58:23.214Z,8.40
2019-04-06T13:01:31.445Z,10.93
2019-04-06T13:04:54.833Z,7.50
2019-04-06T13:08:16.891Z,9.98
2019-04-06T13:11:21.977Z,7.47
2019-04-06T13:14:27.321Z,5.80
2019-04-06T13:17:32.349Z,6.42
2019-04-06T13:20:41.835Z,8.48
2019-04-06T13:23:46.346Z,9.43
2019-04-06T13:26:52.034Z,6.47
2019-04-06T13:29:55.850Z,8.08
2019-04-06T13:33:14.486Z,7.67
2019-04-06T13:36:15.501Z,9.43
2019-04-06T13:39:25.676Z,4.15
2019-04-06T13:42:29.192Z,6.20
2019-04-06T13:45:37.404Z,6.42
2019-04-06T13:48:54.361Z,11.45
2019-04-06T13:52:01.137Z,8.63
2019-04-06T13:55:21.065Z,6.50
2019-04-06T13:58:27.319Z,4.25
2019-04-06T14:01:40.713Z,8.65
2019-04-06T14:05:04.051Z,7.78
2019-04-06T14:08:04.184Z,8.38
2019-04-06T14:11:09.287Z,6.75
2019-04-06T14:14:16.426Z,8.65
2019-04-06T14:17:31.921Z,7.80
2019-04-06T14:20:45.034Z,9.90
2019-04-06T14:23:48.403Z,10.78
2019-04-06T14:26:57.556Z,9.88
2019-04-06T14:29:57.941Z,11.68
2019-04-06T14:33:08.464Z,7.08
2019-04-06T14:36:16.496Z,4.70
2019-04-06T14:39:20.722Z,6.87
2019-04-06T14:42:25.007Z,6.72
2019-04-06T14:45:32.235Z,7.78
2019-04-06T14:48:38.255Z,5.17
2019-04-06T14:51:49.224Z,7.53
2019-04-06T14:54:54.826Z,11.30
2019-04-06T14:58:14.648Z,10.30
2019-04-06T15:01:17.369Z,7.65
2019-04-06T15:04:25.706Z,14.25
2019-04-06T15:07:30.050Z,11.10
2019-04-06T15:10:38.703Z,9.75
2019-04-06T15:13:53.081Z,10.78
2019-04-06T15:16:57.393Z,11.45
2019-04-06T15:20:13.671Z,11.25
2019-04-06T15:23:18.773Z,8.38
2019-04-06T15:26:39.283Z,9.45
2019-04-06T15:29:43.396Z,14.43
2019-04-06T15:33:04.237Z,7.78
2019-04-06T15:36:02.919Z,11.55
2019-04-06T15:39:19.527Z,9.70
2019-04-06T15:42:20.780Z,13.30
2019-04-06T15:45:24.448Z,10.05
2019-04-06T15:48:41.332Z,9.90
2019-04-06T15:51:45.269Z,4.12
2019-04-06T15:54:55.463Z,3.40
2019-04-06T15:58:02.975Z,1.35
2019-04-06T16:01:05.129Z,1.45
2019-04-06T16:04:09.451Z,2.25
2019-04-06T16:07:14.074Z,1.87
2019-04-06T16:10:18.606Z,0.90
2019-04-06T16:13:39.166Z,1.57
2019-04-06T16:16:43.371Z,2.72
2019-04-06T16:19:47.688Z,0.70
2019-04-06T16:22:52.442Z,1.60
2019-04-06T16:25:58.360Z,1.17
2019-04-06T16:29:18.650Z,1.00
2019-04-06T16:32:31.437Z,2.22
2019-04-06T16:38:43.557Z,1.92
2019-04-06T16:41:48.906Z,3.10
2019-04-06T16:44:53.516Z,1.65
2019-04-06T16:48:06.396Z,1.82
2019-04-06T16:51:15.949Z,5.58
2019-04-06T16:54:20.263Z,1.25
2019-04-06T16:57:19.466Z,2.33
2019-04-06T17:00:38.870Z,4.28
2019-04-06T17:03:52.428Z,3.12
2019-04-06T17:07:05.449Z,10.08
2019-04-06T17:10:18.242Z,11.20
2019-04-06T17:13:33.207Z,12.23
2019-04-06T17:16:49.130Z,13.40
2019-04-06T17:20:02.193Z,6.65
2019-04-06T17:23:01.620Z,11.08
2019-04-06T17:26:14.907Z,8.13
2019-04-06T17:29:25.649Z,11.40
2019-04-06T17:32:34.755Z,5.83
2019-04-06T17:35:27.550Z,10.72
2019-04-06T17:38:33.973Z,12.82
2019-04-06T17:41:36.747Z,11.53
2019-04-06T17:44:41.180Z,10.38
2019-04-06T17:47:45.384Z,11.97
2019-04-06T17:50:49.864Z,9.35
2019-04-06T17:53:57.014Z,13.83
2019-04-06T17:57:01.525Z,12.23
2019-04-06T18:00:11.111Z,13.53
2019-04-06T18:03:21.323Z,7.60
2019-04-06T18:06:28.202Z,11.43
2019-04-06T18:09:33.033Z,13.22
2019-04-06T18:12:38.239Z,13.75
2019-04-06T18:15:31.430Z,12.40
2019-04-06T18:18:16.577Z,13.62
2019-04-06T18:21:09.868Z,16.42
2019-04-06T18:24:03.533Z,14.58
2019-04-06T18:26:55.469Z,14.15
2019-04-06T18:29:42.639Z,14.85
2019-04-06T18:32:57.818Z,9.18
2019-04-06T18:35:42.853Z,9.60
2019-04-06T18:38:43.378Z,7.20
2019-04-06T18:41:35.838Z,5.40
2019-04-06T18:44:32.032Z,7.70
2019-04-06T18:47:25.700Z,6.42
2019-04-06T18:50:17.832Z,5.65
2019-04-06T18:53:11.353Z,5.17
2019-04-06T18:56:04.211Z,7.17
2019-04-06T18:58:58.394Z,7.95
2019-04-06T19:01:51.085Z,16.57
2019-04-06T19:04:49.003Z,15.10
2019-04-06T19:07:43.085Z,13.30
2019-04-06T19:10:37.163Z,10.60
2019-04-06T19:13:26.486Z,13.80
2019-04-06T19:16:20.673Z,16.35
2019-04-06T19:19:14.028Z,12.70
2019-04-06T19:22:07.344Z,12.33
2019-04-06T19:25:00.393Z,11.45
2019-04-06T19:27:53.712Z,16.05
2019-04-06T19:30:54.440Z,12.78
2019-04-06T19:33:47.486Z,11.88
2019-04-06T19:36:40.660Z,16.48
2019-04-06T19:39:34.408Z,18.52
2019-04-06T19:42:23.225Z,18.25
2019-04-06T19:45:24.076Z,16.60
2019-04-06T19:48:17.678Z,18.92
2019-04-06T19:51:10.442Z,7.70
2019-04-06T19:54:05.254Z,9.00
2019-04-06T19:56:56.859Z,7.35
2019-04-06T19:59:49.361Z,6.05
2019-04-06T20:02:39.054Z,2.87
2019-04-06T20:05:31.879Z,3.52
2019-04-06T20:08:25.505Z,3.05
2019-04-06T20:11:14.669Z,1.82
2019-04-06T20:14:08.760Z,3.15
2019-04-06T20:17:02.028Z,1.87
2019-04-06T20:19:54.608Z,2.70
2019-04-06T20:22:47.666Z,3.10
2019-04-06T20:25:37.392Z,1.17
2019-04-06T20:28:30.194Z,1.17
2019-04-06T20:31:24.044Z,2.42
2019-04-06T20:34:13.234Z,1.40
2019-04-06T20:37:07.261Z,1.67
2019-04-06T20:40:00.476Z,1.47
2019-04-06T20:42:53.422Z,2.05
2019-04-06T20:45:47.239Z,1.22
2019-04-06T20:48:40.297Z,2.58
2019-04-06T20:51:33.355Z,2.47
2019-04-06T20:54:26.440Z,1.67
2019-04-06T20:57:20.202Z,1.85
2019-04-06T21:03:19.913Z,1.47
2019-04-06T21:06:21.292Z,1.25
2019-04-06T21:09:14.222Z,2.60
2019-04-06T21:12:15.209Z,2.30
2019-04-06T21:15:16.899Z,2.67
2019-04-06T21:18:02.605Z,1.75
2019-04-06T21:20:56.944Z,1.22
2019-04-06T21:23:50.251Z,2.00
2019-04-06T21:26:44.328Z,1.67
2019-04-06T21:29:40.047Z,1.77
2019-04-06T21:32:31.021Z,2.22
2019-04-06T21:35:23.758Z,2.08
2019-04-06T21:38:17.082Z,2.50
2019-04-06T21:41:06.230Z,1.60
2019-04-06T21:44:00.049Z,2.62
2019-04-06T21:47:00.588Z,1.20
2019-04-06T21:49:54.423Z,2.22
2019-04-06T21:52:49.560Z,1.77
2019-04-06T21:55:42.567Z,1.95
2019-04-06T21:58:35.692Z,5.15
2019-04-06T22:01:28.941Z,4.65
2019-04-06T22:04:26.010Z,4.92
2019-04-06T22:07:17.787Z,3.60
2019-04-06T22:10:11.811Z,4.30
2019-04-06T22:13:04.978Z,3.17
2019-04-06T22:15:58.184Z,3.25
2019-04-06T22:18:51.119Z,3.40
2019-04-06T22:21:45.216Z,3.72
2019-04-06T22:24:37.744Z,1.90
2019-04-06T22:27:31.190Z,2.30
2019-04-06T22:30:25.129Z,2.87
2019-04-06T22:33:18.405Z,3.42
2019-04-06T22:36:07.705Z,2.52
2019-04-06T22:38:56.556Z,4.10
2019-04-06T22:41:49.927Z,2.45
2019-04-06T22:44:42.784Z,2.25
2019-04-06T22:47:37.080Z,2.08
2019-04-06T22:50:26.023Z,4.47
2019-04-06T22:56:20.417Z,3.22
2019-04-06T22:59:13.134Z,1.87
2019-04-06T23:02:06.462Z,3.12
2019-04-06T23:05:02.917Z,4.83
2019-04-06T23:07:56.131Z,1.52
2019-04-06T23:10:49.194Z,2.45
2019-04-06T23:13:42.110Z,2.42
2019-04-06T23:16:34.194Z,3.15
2019-04-06T23:19:28.364Z,2.40
2019-04-06T23:22:22.439Z,2.02
2019-04-06T23:25:16.160Z,2.10
2019-04-06T23:28:08.561Z,4.05
2019-04-06T23:30:58.536Z,3.02
2019-04-06T23:33:47.183Z,4.25
2019-04-06T23:36:39.787Z,3.75
2019-04-06T23:39:34.343Z,1.52
2019-04-06T23:42:27.152Z,3.17
2019-04-06T23:45:23.448Z,2.12
2019-04-06T23:48:16.354Z,2.35
2019-04-06T23:51:05.262Z,3.47
2019-04-06T23:53:59.157Z,1.95
2019-04-06T23:56:51.951Z,2.75
2019-04-06T23:59:44.752Z,1.95
